sensor_id;sensor_type;location;lat;lon;timestamp;pressure;altitude;pressure_sealevel;temperature;humidity
51261;BME280;61705;46.228;24.812;2022-11-06T00:00:28;97309.72;;;9.88;81.08
51261;BME280;61705;46.228;24.812;2022-11-06T00:03:02;97306.22;;;9.87;80.94
51261;BME280;61705;46.228;24.812;2022-11-06T00:05:29;97308.84;;;9.87;81.13
51261;BME280;61705;46.228;24.812;2022-11-06T00:08:25;97315.94;;;9.87;81.27
51261;BME280;61705;46.228;24.812;2022-11-06T00:10:54;97318.66;;;9.85;81.26
51261;BME280;61705;46.228;24.812;2022-11-06T00:13:23;97315.88;;;9.88;81.22
51261;BME280;61705;46.228;24.812;2022-11-06T00:15:50;97321.53;;;9.98;80.82
51261;BME280;61705;46.228;24.812;2022-11-06T00:18:17;97329.63;;;9.95;80.74
51261;BME280;61705;46.228;24.812;2022-11-06T00:20:47;97338.53;;;9.92;80.95
51261;BME280;61705;46.228;24.812;2022-11-06T00:23:14;97341.38;;;9.88;81.27
51261;BME280;61705;46.228;24.812;2022-11-06T00:25:40;97333.63;;;9.85;81.11
51261;BME280;61705;46.228;24.812;2022-11-06T00:28:07;97336.09;;;9.88;81.31
51261;BME280;61705;46.228;24.812;2022-11-06T00:30:34;97330.53;;;9.94;80.92
51261;BME280;61705;46.228;24.812;2022-11-06T00:33:01;97335.75;;;9.95;80.86
51261;BME280;61705;46.228;24.812;2022-11-06T00:35:28;97340.00;;;9.98;80.59
51261;BME280;61705;46.228;24.812;2022-11-06T00:37:55;97333.16;;;9.94;80.65
51261;BME280;61705;46.228;24.812;2022-11-06T00:40:22;97337.84;;;9.89;81.04
51261;BME280;61705;46.228;24.812;2022-11-06T00:42:52;97330.28;;;9.81;81.28
51261;BME280;61705;46.228;24.812;2022-11-06T00:45:24;97338.50;;;9.75;81.54
51261;BME280;61705;46.228;24.812;2022-11-06T00:47:52;97337.66;;;9.75;81.54
51261;BME280;61705;46.228;24.812;2022-11-06T00:50:19;97342.91;;;9.75;81.40
51261;BME280;61705;46.228;24.812;2022-11-06T00:52:47;97338.69;;;9.70;81.48
51261;BME280;61705;46.228;24.812;2022-11-06T00:55:16;97337.06;;;9.68;81.64
51261;BME280;61705;46.228;24.812;2022-11-06T00:57:46;97337.22;;;9.65;81.95
51261;BME280;61705;46.228;24.812;2022-11-06T01:00:13;97337.97;;;9.67;81.87
51261;BME280;61705;46.228;24.812;2022-11-06T01:02:39;97338.78;;;9.69;81.81
51261;BME280;61705;46.228;24.812;2022-11-06T01:05:06;97332.94;;;9.62;81.74
51261;BME280;61705;46.228;24.812;2022-11-06T01:07:33;97333.66;;;9.66;81.62
51261;BME280;61705;46.228;24.812;2022-11-06T01:10:02;97333.50;;;9.69;81.92
51261;BME280;61705;46.228;24.812;2022-11-06T01:12:33;97336.19;;;9.67;81.92
51261;BME280;61705;46.228;24.812;2022-11-06T01:15:00;97340.47;;;9.70;81.92
51261;BME280;61705;46.228;24.812;2022-11-06T01:17:29;97349.25;;;9.70;81.77
51261;BME280;61705;46.228;24.812;2022-11-06T01:19:59;97339.56;;;9.71;81.87
51261;BME280;61705;46.228;24.812;2022-11-06T01:22:28;97348.25;;;9.73;81.98
51261;BME280;61705;46.228;24.812;2022-11-06T01:24:57;97348.03;;;9.78;81.68
51261;BME280;61705;46.228;24.812;2022-11-06T01:27:24;97349.09;;;9.73;81.92
51261;BME280;61705;46.228;24.812;2022-11-06T01:29:53;97339.34;;;9.76;81.85
51261;BME280;61705;46.228;24.812;2022-11-06T01:32:22;97346.31;;;9.77;82.02
51261;BME280;61705;46.228;24.812;2022-11-06T01:34:49;97344.47;;;9.79;82.07
51261;BME280;61705;46.228;24.812;2022-11-06T01:37:16;97339.25;;;9.77;82.16
51261;BME280;61705;46.228;24.812;2022-11-06T01:39:43;97341.59;;;9.83;82.14
51261;BME280;61705;46.228;24.812;2022-11-06T01:42:13;97348.31;;;9.90;81.90
51261;BME280;61705;46.228;24.812;2022-11-06T01:47:20;97351.03;;;9.89;82.07
51261;BME280;61705;46.228;24.812;2022-11-06T01:49:51;97350.03;;;9.91;82.04
51261;BME280;61705;46.228;24.812;2022-11-06T01:52:22;97352.88;;;9.87;82.01
51261;BME280;61705;46.228;24.812;2022-11-06T01:54:53;97350.47;;;9.82;82.21
51261;BME280;61705;46.228;24.812;2022-11-06T01:57:23;97351.69;;;9.75;82.90
51261;BME280;61705;46.228;24.812;2022-11-06T01:59:55;97348.97;;;9.77;82.47
51261;BME280;61705;46.228;24.812;2022-11-06T02:02:22;97351.75;;;9.73;82.27
51261;BME280;61705;46.228;24.812;2022-11-06T02:04:49;97354.59;;;9.69;82.20
51261;BME280;61705;46.228;24.812;2022-11-06T02:07:19;97356.97;;;9.75;82.51
51261;BME280;61705;46.228;24.812;2022-11-06T02:09:46;97353.91;;;9.65;82.42
51261;BME280;61705;46.228;24.812;2022-11-06T02:12:18;97350.56;;;9.62;82.53
51261;BME280;61705;46.228;24.812;2022-11-06T02:17:56;97365.22;;;9.48;83.17
51261;BME280;61705;46.228;24.812;2022-11-06T02:24:30;97373.94;;;9.51;83.13
51261;BME280;61705;46.228;24.812;2022-11-06T02:29:49;97379.69;;;9.40;83.13
51261;BME280;61705;46.228;24.812;2022-11-06T02:35:49;97371.94;;;9.37;83.46
51261;BME280;61705;46.228;24.812;2022-11-06T02:38:22;97375.69;;;9.31;83.59
51261;BME280;61705;46.228;24.812;2022-11-06T02:40:59;97374.84;;;9.31;83.75
51261;BME280;61705;46.228;24.812;2022-11-06T02:43:31;97376.06;;;9.23;83.83
51261;BME280;61705;46.228;24.812;2022-11-06T02:46:26;97378.59;;;9.25;83.85
51261;BME280;61705;46.228;24.812;2022-11-06T02:48:57;97376.81;;;9.07;84.05
51261;BME280;61705;46.228;24.812;2022-11-06T02:51:29;97379.31;;;9.10;84.53
51261;BME280;61705;46.228;24.812;2022-11-06T02:54:01;97380.94;;;9.12;84.41
51261;BME280;61705;46.228;24.812;2022-11-06T02:56:33;97384.38;;;9.14;84.26
51261;BME280;61705;46.228;24.812;2022-11-06T02:59:09;97388.13;;;9.09;84.55
51261;BME280;61705;46.228;24.812;2022-11-06T03:01:42;97381.53;;;8.98;84.74
51261;BME280;61705;46.228;24.812;2022-11-06T03:04:22;97384.97;;;9.00;84.78
51261;BME280;61705;46.228;24.812;2022-11-06T03:07:01;97389.25;;;9.03;84.75
51261;BME280;61705;46.228;24.812;2022-11-06T03:09:32;97389.06;;;9.08;84.56
51261;BME280;61705;46.228;24.812;2022-11-06T03:12:19;97387.63;;;9.19;84.86
51261;BME280;61705;46.228;24.812;2022-11-06T03:14:53;97388.16;;;9.28;84.23
51261;BME280;61705;46.228;24.812;2022-11-06T03:20:27;97384.72;;;9.25;83.84
51261;BME280;61705;46.228;24.812;2022-11-06T03:23:02;97390.88;;;9.06;84.18
51261;BME280;61705;46.228;24.812;2022-11-06T03:25:42;97394.66;;;9.00;84.39
51261;BME280;61705;46.228;24.812;2022-11-06T03:30:51;97397.16;;;9.03;84.30
51261;BME280;61705;46.228;24.812;2022-11-06T03:33:41;97392.94;;;8.99;84.34
51261;BME280;61705;46.228;24.812;2022-11-06T03:36:19;97399.09;;;8.99;84.56
51261;BME280;61705;46.228;24.812;2022-11-06T03:39:13;97406.31;;;8.94;84.35
51261;BME280;61705;46.228;24.812;2022-11-06T03:41:48;97401.84;;;8.96;84.70
51261;BME280;61705;46.228;24.812;2022-11-06T03:44:22;97405.59;;;8.91;84.90
51261;BME280;61705;46.228;24.812;2022-11-06T03:47:06;97401.25;;;8.90;84.92
51261;BME280;61705;46.228;24.812;2022-11-06T03:49:39;97405.59;;;8.91;84.96
51261;BME280;61705;46.228;24.812;2022-11-06T03:52:16;97407.59;;;8.86;85.02
51261;BME280;61705;46.228;24.812;2022-11-06T03:54:54;97408.03;;;8.75;85.09
51261;BME280;61705;46.228;24.812;2022-11-06T03:57:48;97402.97;;;8.70;85.39
51261;BME280;61705;46.228;24.812;2022-11-06T04:00:19;97404.66;;;8.71;85.42
51261;BME280;61705;46.228;24.812;2022-11-06T04:02:52;97403.22;;;8.64;85.69
51261;BME280;61705;46.228;24.812;2022-11-06T04:05:34;97406.66;;;8.66;85.91
51261;BME280;61705;46.228;24.812;2022-11-06T04:08:10;97405.06;;;8.62;86.00
51261;BME280;61705;46.228;24.812;2022-11-06T04:10:59;97399.19;;;8.56;86.20
51261;BME280;61705;46.228;24.812;2022-11-06T04:13:47;97393.69;;;8.62;86.15
51261;BME280;61705;46.228;24.812;2022-11-06T04:16:24;97402.81;;;8.53;86.29
51261;BME280;61705;46.228;24.812;2022-11-06T04:18:52;97393.38;;;8.47;86.40
51261;BME280;61705;46.228;24.812;2022-11-06T04:27:31;97397.59;;;8.29;86.49
51261;BME280;61705;46.228;24.812;2022-11-06T04:30:08;97394.00;;;8.10;87.16
51261;BME280;61705;46.228;24.812;2022-11-06T04:32:53;97395.16;;;8.03;87.08
51261;BME280;61705;46.228;24.812;2022-11-06T04:38:03;97400.72;;;7.95;87.31
51261;BME280;61705;46.228;24.812;2022-11-06T04:40:56;97413.28;;;7.89;87.55
51261;BME280;61705;46.228;24.812;2022-11-06T04:46:03;97408.19;;;7.84;87.63
51261;BME280;61705;46.228;24.812;2022-11-06T04:48:31;97408.81;;;7.91;87.29
51261;BME280;61705;46.228;24.812;2022-11-06T04:51:03;97415.34;;;7.80;87.34
51261;BME280;61705;46.228;24.812;2022-11-06T04:53:32;97415.50;;;7.76;87.31
51261;BME280;61705;46.228;24.812;2022-11-06T04:56:09;97415.78;;;7.70;87.59
51261;BME280;61705;46.228;24.812;2022-11-06T04:58:36;97423.69;;;7.68;87.48
51261;BME280;61705;46.228;24.812;2022-11-06T05:01:04;97423.66;;;7.70;87.35
51261;BME280;61705;46.228;24.812;2022-11-06T05:03:36;97422.03;;;7.66;87.41
51261;BME280;61705;46.228;24.812;2022-11-06T05:06:03;97431.88;;;7.60;87.48
51261;BME280;61705;46.228;24.812;2022-11-06T05:08:30;97424.28;;;7.53;87.47
51261;BME280;61705;46.228;24.812;2022-11-06T05:11:00;97427.19;;;7.45;87.51
51261;BME280;61705;46.228;24.812;2022-11-06T05:13:26;97435.13;;;7.44;87.44
51261;BME280;61705;46.228;24.812;2022-11-06T05:15:56;97433.84;;;7.32;87.73
51261;BME280;61705;46.228;24.812;2022-11-06T05:18:25;97434.69;;;7.32;87.97
51261;BME280;61705;46.228;24.812;2022-11-06T05:21:02;97435.06;;;7.22;87.93
51261;BME280;61705;46.228;24.812;2022-11-06T05:23:47;97437.22;;;7.10;88.38
51261;BME280;61705;46.228;24.812;2022-11-06T05:26:14;97443.91;;;7.19;88.19
51261;BME280;61705;46.228;24.812;2022-11-06T05:28:43;97447.97;;;7.28;87.72
51261;BME280;61705;46.228;24.812;2022-11-06T05:31:10;97447.81;;;7.32;87.58
51261;BME280;61705;46.228;24.812;2022-11-06T05:33:36;97461.25;;;7.25;87.66
51261;BME280;61705;46.228;24.812;2022-11-06T05:36:04;97461.19;;;7.26;87.76
51261;BME280;61705;46.228;24.812;2022-11-06T05:38:34;97477.88;;;7.25;87.64
51261;BME280;61705;46.228;24.812;2022-11-06T05:41:02;97479.84;;;7.19;87.64
51261;BME280;61705;46.228;24.812;2022-11-06T05:43:29;97472.75;;;7.21;87.62
51261;BME280;61705;46.228;24.812;2022-11-06T05:45:59;97483.88;;;7.29;87.80
51261;BME280;61705;46.228;24.812;2022-11-06T05:48:27;97490.72;;;7.33;87.92
51261;BME280;61705;46.228;24.812;2022-11-06T05:51:00;97484.75;;;7.28;87.84
51261;BME280;61705;46.228;24.812;2022-11-06T05:53:36;97486.31;;;7.33;87.96
51261;BME280;61705;46.228;24.812;2022-11-06T05:56:03;97486.13;;;7.40;87.93
51261;BME280;61705;46.228;24.812;2022-11-06T05:58:31;97492.34;;;7.37;87.88
51261;BME280;61705;46.228;24.812;2022-11-06T06:00:58;97491.47;;;7.36;88.06
51261;BME280;61705;46.228;24.812;2022-11-06T06:03:25;97500.03;;;7.42;88.04
51261;BME280;61705;46.228;24.812;2022-11-06T06:05:52;97498.97;;;7.47;87.75
51261;BME280;61705;46.228;24.812;2022-11-06T06:08:19;97503.41;;;7.45;87.47
51261;BME280;61705;46.228;24.812;2022-11-06T06:10:57;97507.72;;;7.48;87.12
51261;BME280;61705;46.228;24.812;2022-11-06T06:13:36;97510.88;;;7.57;87.00
51261;BME280;61705;46.228;24.812;2022-11-06T06:16:03;97515.97;;;7.62;86.42
51261;BME280;61705;46.228;24.812;2022-11-06T06:18:30;97513.19;;;7.67;86.52
51261;BME280;61705;46.228;24.812;2022-11-06T06:21:06;97513.88;;;7.72;86.35
51261;BME280;61705;46.228;24.812;2022-11-06T06:23:33;97510.72;;;7.86;86.28
51261;BME280;61705;46.228;24.812;2022-11-06T06:26:00;97513.88;;;7.95;86.15
51261;BME280;61705;46.228;24.812;2022-11-06T06:28:26;97517.09;;;8.03;85.83
51261;BME280;61705;46.228;24.812;2022-11-06T06:30:53;97510.03;;;8.04;86.19
51261;BME280;61705;46.228;24.812;2022-11-06T06:33:26;97509.75;;;8.12;86.08
51261;BME280;61705;46.228;24.812;2022-11-06T06:35:55;97518.56;;;8.11;86.15
51261;BME280;61705;46.228;24.812;2022-11-06T06:38:27;97519.31;;;8.14;86.25
51261;BME280;61705;46.228;24.812;2022-11-06T06:40:54;97512.16;;;8.18;86.35
51261;BME280;61705;46.228;24.812;2022-11-06T06:43:21;97517.03;;;8.27;86.10
51261;BME280;61705;46.228;24.812;2022-11-06T06:45:47;97523.31;;;8.24;86.32
51261;BME280;61705;46.228;24.812;2022-11-06T06:48:17;97529.47;;;8.23;86.55
51261;BME280;61705;46.228;24.812;2022-11-06T06:50:47;97530.78;;;8.35;86.31
51261;BME280;61705;46.228;24.812;2022-11-06T06:53:16;97528.69;;;8.45;86.11
51261;BME280;61705;46.228;24.812;2022-11-06T06:55:43;97526.59;;;8.53;86.17
51261;BME280;61705;46.228;24.812;2022-11-06T06:58:09;97520.84;;;8.65;85.97
51261;BME280;61705;46.228;24.812;2022-11-06T07:00:43;97526.28;;;8.83;85.39
51261;BME280;61705;46.228;24.812;2022-11-06T07:03:09;97525.59;;;8.99;84.73
51261;BME280;61705;46.228;24.812;2022-11-06T07:05:37;97530.41;;;9.10;84.71
51261;BME280;61705;46.228;24.812;2022-11-06T07:08:04;97528.50;;;9.14;84.46
51261;BME280;61705;46.228;24.812;2022-11-06T07:10:31;97529.03;;;9.22;84.15
51261;BME280;61705;46.228;24.812;2022-11-06T07:13:04;97528.63;;;9.31;84.02
51261;BME280;61705;46.228;24.812;2022-11-06T07:15:33;97532.81;;;9.37;83.78
51261;BME280;61705;46.228;24.812;2022-11-06T07:18:03;97527.78;;;9.51;83.48
51261;BME280;61705;46.228;24.812;2022-11-06T07:20:34;97525.72;;;9.58;83.51
51261;BME280;61705;46.228;24.812;2022-11-06T07:23:10;97530.66;;;9.65;83.33
51261;BME280;61705;46.228;24.812;2022-11-06T07:25:37;97529.59;;;9.69;83.24
51261;BME280;61705;46.228;24.812;2022-11-06T07:28:07;97526.56;;;9.79;83.29
51261;BME280;61705;46.228;24.812;2022-11-06T07:30:34;97534.03;;;9.88;83.12
51261;BME280;61705;46.228;24.812;2022-11-06T07:33:04;97535.16;;;10.03;82.89
51261;BME280;61705;46.228;24.812;2022-11-06T07:35:32;97520.38;;;10.17;82.51
51261;BME280;61705;46.228;24.812;2022-11-06T07:38:03;97525.06;;;10.31;81.98
51261;BME280;61705;46.228;24.812;2022-11-06T07:40:32;97522.56;;;10.47;81.48
51261;BME280;61705;46.228;24.812;2022-11-06T07:43:04;97514.91;;;10.60;81.12
51261;BME280;61705;46.228;24.812;2022-11-06T07:45:31;97527.44;;;10.74;80.95
51261;BME280;61705;46.228;24.812;2022-11-06T07:47:59;97521.78;;;10.81;80.60
51261;BME280;61705;46.228;24.812;2022-11-06T07:50:26;97523.03;;;10.91;80.38
51261;BME280;61705;46.228;24.812;2022-11-06T07:52:54;97508.72;;;10.96;79.99
51261;BME280;61705;46.228;24.812;2022-11-06T07:55:24;97517.06;;;11.05;79.50
51261;BME280;61705;46.228;24.812;2022-11-06T07:58:11;97518.78;;;11.24;79.18
51261;BME280;61705;46.228;24.812;2022-11-06T08:00:38;97516.69;;;11.30;79.11
51261;BME280;61705;46.228;24.812;2022-11-06T08:03:05;97519.06;;;11.35;78.85
51261;BME280;61705;46.228;24.812;2022-11-06T08:05:32;97513.41;;;11.43;79.00
51261;BME280;61705;46.228;24.812;2022-11-06T08:07:58;97510.69;;;11.44;79.35
51261;BME280;61705;46.228;24.812;2022-11-06T08:10:25;97520.69;;;11.55;79.06
51261;BME280;61705;46.228;24.812;2022-11-06T08:12:52;97517.84;;;11.59;78.84
51261;BME280;61705;46.228;24.812;2022-11-06T08:15:18;97523.16;;;11.75;78.48
51261;BME280;61705;46.228;24.812;2022-11-06T08:17:45;97527.19;;;11.82;77.97
51261;BME280;61705;46.228;24.812;2022-11-06T08:20:15;97516.84;;;11.95;77.91
51261;BME280;61705;46.228;24.812;2022-11-06T08:22:44;97514.47;;;12.06;77.61
51261;BME280;61705;46.228;24.812;2022-11-06T08:25:11;97515.94;;;12.12;77.58
51261;BME280;61705;46.228;24.812;2022-11-06T08:27:38;97521.28;;;12.28;77.41
51261;BME280;61705;46.228;24.812;2022-11-06T08:30:10;97509.47;;;12.33;77.12
51261;BME280;61705;46.228;24.812;2022-11-06T08:32:37;97519.56;;;12.43;77.27
51261;BME280;61705;46.228;24.812;2022-11-06T08:35:04;97518.22;;;12.51;76.65
51261;BME280;61705;46.228;24.812;2022-11-06T08:37:31;97510.31;;;12.66;76.40
51261;BME280;61705;46.228;24.812;2022-11-06T08:40:01;97516.13;;;12.72;76.04
51261;BME280;61705;46.228;24.812;2022-11-06T08:42:28;97509.63;;;12.78;75.67
51261;BME280;61705;46.228;24.812;2022-11-06T08:44:56;97515.41;;;12.85;75.30
51261;BME280;61705;46.228;24.812;2022-11-06T08:47:23;97511.06;;;12.99;74.84
51261;BME280;61705;46.228;24.812;2022-11-06T08:49:49;97511.63;;;13.04;74.69
51261;BME280;61705;46.228;24.812;2022-11-06T08:52:16;97511.94;;;13.14;74.46
51261;BME280;61705;46.228;24.812;2022-11-06T08:54:46;97503.63;;;13.20;73.94
51261;BME280;61705;46.228;24.812;2022-11-06T08:57:16;97512.19;;;13.25;74.10
51261;BME280;61705;46.228;24.812;2022-11-06T08:59:43;97506.31;;;13.50;72.86
51261;BME280;61705;46.228;24.812;2022-11-06T09:02:13;97507.84;;;13.69;71.38
51261;BME280;61705;46.228;24.812;2022-11-06T09:04:40;97510.22;;;13.88;70.21
51261;BME280;61705;46.228;24.812;2022-11-06T09:07:07;97514.22;;;14.09;68.59
51261;BME280;61705;46.228;24.812;2022-11-06T09:09:33;97508.97;;;14.22;68.13
51261;BME280;61705;46.228;24.812;2022-11-06T09:12:00;97511.69;;;14.49;65.12
51261;BME280;61705;46.228;24.812;2022-11-06T09:14:28;97498.81;;;14.57;65.34
51261;BME280;61705;46.228;24.812;2022-11-06T09:16:55;97499.66;;;14.58;65.15
51261;BME280;61705;46.228;24.812;2022-11-06T09:19:24;97498.63;;;14.87;63.15
51261;BME280;61705;46.228;24.812;2022-11-06T09:21:51;97503.75;;;14.76;64.56
51261;BME280;61705;46.228;24.812;2022-11-06T09:24:22;97500.81;;;14.81;64.07
51261;BME280;61705;46.228;24.812;2022-11-06T09:27:09;97505.63;;;14.88;63.19
51261;BME280;61705;46.228;24.812;2022-11-06T09:29:38;97506.94;;;14.96;63.46
51261;BME280;61705;46.228;24.812;2022-11-06T09:32:06;97501.47;;;14.84;63.67
51261;BME280;61705;46.228;24.812;2022-11-06T09:34:35;97501.34;;;14.86;63.20
51261;BME280;61705;46.228;24.812;2022-11-06T09:37:01;97501.47;;;14.84;63.57
51261;BME280;61705;46.228;24.812;2022-11-06T09:39:28;97500.91;;;15.06;62.13
51261;BME280;61705;46.228;24.812;2022-11-06T09:42:05;97500.06;;;15.06;62.19
51261;BME280;61705;46.228;24.812;2022-11-06T09:47:18;97503.59;;;15.19;61.17
51261;BME280;61705;46.228;24.812;2022-11-06T09:49:54;97495.84;;;15.41;59.70
51261;BME280;61705;46.228;24.812;2022-11-06T09:52:32;97495.16;;;15.52;58.15
51261;BME280;61705;46.228;24.812;2022-11-06T09:55:02;97494.72;;;15.46;58.81
51261;BME280;61705;46.228;24.812;2022-11-06T09:57:34;97495.56;;;15.46;58.96
51261;BME280;61705;46.228;24.812;2022-11-06T10:00:03;97496.09;;;15.64;58.00
51261;BME280;61705;46.228;24.812;2022-11-06T10:02:41;97495.72;;;15.70;58.36
51261;BME280;61705;46.228;24.812;2022-11-06T10:05:17;97493.16;;;15.69;58.41
51261;BME280;61705;46.228;24.812;2022-11-06T10:07:48;97486.63;;;15.60;58.78
51261;BME280;61705;46.228;24.812;2022-11-06T10:10:19;97488.31;;;15.61;57.95
51261;BME280;61705;46.228;24.812;2022-11-06T10:13:11;97484.75;;;15.75;57.45
51261;BME280;61705;46.228;24.812;2022-11-06T10:21:21;97489.44;;;15.84;58.05
51261;BME280;61705;46.228;24.812;2022-11-06T10:26:29;97480.91;;;16.04;56.69
51261;BME280;61705;46.228;24.812;2022-11-06T10:37:05;97480.91;;;15.79;57.98
51261;BME280;61705;46.228;24.812;2022-11-06T10:39:34;97481.97;;;15.76;58.01
51261;BME280;61705;46.228;24.812;2022-11-06T10:42:05;97478.44;;;15.76;57.92
51261;BME280;61705;46.228;24.812;2022-11-06T10:44:37;97473.22;;;15.74;58.27
51261;BME280;61705;46.228;24.812;2022-11-06T10:47:23;97477.09;;;15.83;58.10
51261;BME280;61705;46.228;24.812;2022-11-06T10:49:56;97470.03;;;15.82;58.56
51261;BME280;61705;46.228;24.812;2022-11-06T10:52:26;97483.25;;;15.83;58.38
51261;BME280;61705;46.228;24.812;2022-11-06T10:59:53;97469.31;;;15.80;58.92
51261;BME280;61705;46.228;24.812;2022-11-06T11:04:49;97467.69;;;15.77;58.78
51261;BME280;61705;46.228;24.812;2022-11-06T11:07:23;97462.78;;;15.84;58.81
51261;BME280;61705;46.228;24.812;2022-11-06T11:09:52;97470.56;;;15.74;59.63
51261;BME280;61705;46.228;24.812;2022-11-06T11:12:21;97467.59;;;15.66;59.64
51261;BME280;61705;46.228;24.812;2022-11-06T11:17:33;97468.88;;;15.73;59.99
51261;BME280;61705;46.228;24.812;2022-11-06T11:20:00;97460.22;;;15.82;59.70
51261;BME280;61705;46.228;24.812;2022-11-06T11:22:27;97455.34;;;15.76;60.29
51261;BME280;61705;46.228;24.812;2022-11-06T11:25:03;97462.56;;;15.74;60.36
51261;BME280;61705;46.228;24.812;2022-11-06T11:27:34;97451.50;;;15.80;60.61
51261;BME280;61705;46.228;24.812;2022-11-06T11:30:10;97454.88;;;15.82;59.98
51261;BME280;61705;46.228;24.812;2022-11-06T11:32:47;97450.72;;;15.91;60.27
51261;BME280;61705;46.228;24.812;2022-11-06T11:35:18;97448.06;;;15.91;60.37
51261;BME280;61705;46.228;24.812;2022-11-06T11:37:48;97447.09;;;15.92;59.78
51261;BME280;61705;46.228;24.812;2022-11-06T11:40:32;97452.34;;;15.94;60.16
51261;BME280;61705;46.228;24.812;2022-11-06T11:43:21;97453.81;;;15.98;59.87
51261;BME280;61705;46.228;24.812;2022-11-06T11:48:40;97445.91;;;16.09;59.80
51261;BME280;61705;46.228;24.812;2022-11-06T11:54:17;97446.72;;;16.22;60.00
51261;BME280;61705;46.228;24.812;2022-11-06T11:56:49;97441.41;;;16.22;59.65
51261;BME280;61705;46.228;24.812;2022-11-06T12:04:57;97434.84;;;16.39;59.43
51261;BME280;61705;46.228;24.812;2022-11-06T12:07:28;97439.31;;;16.39;59.53
51261;BME280;61705;46.228;24.812;2022-11-06T12:09:58;97437.28;;;16.42;59.64
51261;BME280;61705;46.228;24.812;2022-11-06T12:12:30;97437.50;;;16.39;59.86
51261;BME280;61705;46.228;24.812;2022-11-06T12:15:17;97433.78;;;16.42;59.48
51261;BME280;61705;46.228;24.812;2022-11-06T12:18:15;97432.00;;;16.53;59.99
51261;BME280;61705;46.228;24.812;2022-11-06T12:20:56;97433.16;;;16.62;59.98
51261;BME280;61705;46.228;24.812;2022-11-06T12:23:35;97431.53;;;16.72;57.94
51261;BME280;61705;46.228;24.812;2022-11-06T12:28:49;97430.53;;;16.73;57.26
51261;BME280;61705;46.228;24.812;2022-11-06T12:31:31;97432.03;;;16.77;56.31
51261;BME280;61705;46.228;24.812;2022-11-06T12:34:06;97432.66;;;16.81;57.18
51261;BME280;61705;46.228;24.812;2022-11-06T12:36:54;97436.66;;;16.75;56.86
51261;BME280;61705;46.228;24.812;2022-11-06T12:39:22;97428.84;;;16.72;56.97
51261;BME280;61705;46.228;24.812;2022-11-06T12:41:52;97433.78;;;16.66;57.19
51261;BME280;61705;46.228;24.812;2022-11-06T12:44:22;97436.69;;;16.63;57.38
51261;BME280;61705;46.228;24.812;2022-11-06T12:57:06;97426.84;;;16.39;58.29
51261;BME280;61705;46.228;24.812;2022-11-06T13:05:32;97431.09;;;16.42;58.94
51261;BME280;61705;46.228;24.812;2022-11-06T13:18:14;97440.53;;;16.34;59.71
51261;BME280;61705;46.228;24.812;2022-11-06T13:20:47;97437.09;;;16.32;60.06
51261;BME280;61705;46.228;24.812;2022-11-06T13:23:23;97447.34;;;16.26;60.20
51261;BME280;61705;46.228;24.812;2022-11-06T13:25:57;97452.50;;;16.16;60.41
51261;BME280;61705;46.228;24.812;2022-11-06T13:28:32;97449.88;;;16.03;60.59
51261;BME280;61705;46.228;24.812;2022-11-06T13:31:00;97449.53;;;16.08;60.67
51261;BME280;61705;46.228;24.812;2022-11-06T13:33:29;97462.03;;;16.07;60.80
51261;BME280;61705;46.228;24.812;2022-11-06T13:35:58;97456.91;;;16.04;61.02
51261;BME280;61705;46.228;24.812;2022-11-06T13:38:33;97455.63;;;15.97;61.23
51261;BME280;61705;46.228;24.812;2022-11-06T13:41:26;97456.69;;;15.95;61.41
51261;BME280;61705;46.228;24.812;2022-11-06T13:44:06;97462.44;;;15.88;61.91
51261;BME280;61705;46.228;24.812;2022-11-06T13:47:02;97460.44;;;15.79;62.01
51261;BME280;61705;46.228;24.812;2022-11-06T13:51:56;97467.06;;;15.74;62.31
51261;BME280;61705;46.228;24.812;2022-11-06T13:59:34;97471.06;;;15.54;63.38
51261;BME280;61705;46.228;24.812;2022-11-06T14:07:35;97479.44;;;15.22;64.70
51261;BME280;61705;46.228;24.812;2022-11-06T14:10:03;97480.81;;;15.15;65.23
51261;BME280;61705;46.228;24.812;2022-11-06T14:12:30;97478.34;;;15.12;65.23
51261;BME280;61705;46.228;24.812;2022-11-06T14:15:22;97483.13;;;15.07;65.45
51261;BME280;61705;46.228;24.812;2022-11-06T14:17:53;97490.13;;;14.95;66.22
51261;BME280;61705;46.228;24.812;2022-11-06T14:22:53;97480.84;;;14.88;65.82
51261;BME280;61705;46.228;24.812;2022-11-06T14:35:59;97500.41;;;14.87;63.09
51261;BME280;61705;46.228;24.812;2022-11-06T14:38:37;97498.81;;;14.84;63.29
51261;BME280;61705;46.228;24.812;2022-11-06T14:43:51;97496.56;;;14.78;63.00
51261;BME280;61705;46.228;24.812;2022-11-06T14:46:22;97500.09;;;14.64;63.50
51261;BME280;61705;46.228;24.812;2022-11-06T14:48:49;97500.56;;;14.71;63.25
51261;BME280;61705;46.228;24.812;2022-11-06T14:51:23;97511.25;;;14.57;63.57
51261;BME280;61705;46.228;24.812;2022-11-06T14:53:51;97500.59;;;14.57;63.53
51261;BME280;61705;46.228;24.812;2022-11-06T14:56:25;97507.06;;;14.53;63.24
51261;BME280;61705;46.228;24.812;2022-11-06T14:58:55;97511.88;;;14.46;63.60
51261;BME280;61705;46.228;24.812;2022-11-06T15:08:56;97522.72;;;14.29;64.12
51261;BME280;61705;46.228;24.812;2022-11-06T15:19:03;97530.34;;;13.92;65.44
51261;BME280;61705;46.228;24.812;2022-11-06T15:21:35;97532.97;;;13.78;66.05
51261;BME280;61705;46.228;24.812;2022-11-06T15:26:39;97536.47;;;13.64;66.59
51261;BME280;61705;46.228;24.812;2022-11-06T15:29:17;97537.78;;;13.57;66.66
51261;BME280;61705;46.228;24.812;2022-11-06T15:31:48;97535.69;;;13.47;67.18
51261;BME280;61705;46.228;24.812;2022-11-06T15:36:50;97538.50;;;13.30;68.11
51261;BME280;61705;46.228;24.812;2022-11-06T15:41:48;97541.53;;;13.22;68.32
51261;BME280;61705;46.228;24.812;2022-11-06T15:44:18;97543.44;;;13.20;68.41
51261;BME280;61705;46.228;24.812;2022-11-06T15:46:55;97555.06;;;13.18;68.47
51261;BME280;61705;46.228;24.812;2022-11-06T15:49:23;97552.88;;;13.10;68.79
51261;BME280;61705;46.228;24.812;2022-11-06T15:51:53;97559.47;;;13.03;68.97